createdAt,value
2017-08-21T00:01:42.137Z,15.50
2017-08-21T00:04:09.548Z,15.50
2017-08-21T00:06:36.980Z,15.50
2017-08-21T00:09:04.453Z,15.50
2017-08-21T00:11:31.886Z,15.50
2017-08-21T00:13:59.304Z,15.50
2017-08-21T00:16:27.540Z,15.40
2017-08-21T00:18:54.985Z,15.40
2017-08-21T00:21:22.405Z,15.40
2017-08-21T00:23:50.641Z,15.30
2017-08-21T00:26:18.093Z,15.30
2017-08-21T00:28:45.521Z,15.40
2017-08-21T00:31:12.940Z,15.30
2017-08-21T00:33:40.362Z,15.30
2017-08-21T00:36:07.815Z,15.30
2017-08-21T00:38:35.230Z,15.20
2017-08-21T00:41:03.448Z,15.20
2017-08-21T00:43:30.880Z,15.20
2017-08-21T00:45:58.359Z,15.20
2017-08-21T00:48:25.790Z,15.20
2017-08-21T00:50:53.204Z,15.30
2017-08-21T00:53:20.644Z,15.20
2017-08-21T00:55:48.184Z,15.20
2017-08-21T00:58:15.641Z,15.20
2017-08-21T01:00:43.064Z,15.20
2017-08-21T01:03:10.500Z,15.20
2017-08-21T01:05:38.731Z,15.10
2017-08-21T01:08:06.185Z,15.10
2017-08-21T01:10:33.642Z,15.10
2017-08-21T01:13:01.093Z,15.10
2017-08-21T01:15:28.514Z,15.10
2017-08-21T01:17:55.945Z,15.10
2017-08-21T01:20:23.373Z,15.10
2017-08-21T01:22:50.799Z,15.20
2017-08-21T01:25:18.382Z,15.20
2017-08-21T01:27:45.809Z,15.20
2017-08-21T01:30:13.308Z,15.20
2017-08-21T01:32:40.776Z,15.30
2017-08-21T01:35:08.312Z,15.10
2017-08-21T01:37:35.770Z,15.10
2017-08-21T01:40:03.191Z,15.10
2017-08-21T01:42:31.416Z,15.30
2017-08-21T01:44:58.856Z,15.20
2017-08-21T01:47:26.344Z,15.20
2017-08-21T01:49:53.925Z,15.20
2017-08-21T01:52:21.354Z,15.20
2017-08-21T01:54:48.873Z,15.10
2017-08-21T01:57:17.065Z,14.90
2017-08-21T01:59:44.489Z,14.90
2017-08-21T02:02:11.900Z,14.90
2017-08-21T02:04:39.330Z,14.90
2017-08-21T02:07:06.809Z,15.00
2017-08-21T02:09:34.261Z,15.00
2017-08-21T02:12:01.701Z,15.00
2017-08-21T02:14:29.181Z,15.00
2017-08-21T02:16:56.631Z,14.90
2017-08-21T02:19:24.096Z,14.90
2017-08-21T02:21:51.575Z,14.90
2017-08-21T02:24:18.997Z,14.90
2017-08-21T02:26:46.447Z,15.00
2017-08-21T02:29:13.876Z,15.00
2017-08-21T02:31:41.310Z,15.00
2017-08-21T02:34:08.781Z,14.90
2017-08-21T02:36:36.269Z,14.90
2017-08-21T02:39:03.684Z,14.80
2017-08-21T02:41:31.112Z,14.90
2017-08-21T02:43:58.541Z,14.90
2017-08-21T02:46:26.017Z,14.90
2017-08-21T02:48:54.267Z,15.10
2017-08-21T02:51:21.700Z,15.10
2017-08-21T02:53:49.144Z,15.10
2017-08-21T02:56:16.660Z,15.10
2017-08-21T02:58:44.884Z,15.00
2017-08-21T03:01:12.313Z,15.10
2017-08-21T03:03:39.745Z,15.10
2017-08-21T03:06:07.956Z,14.50
2017-08-21T03:08:35.380Z,14.50
2017-08-21T03:11:02.884Z,14.30
2017-08-21T03:13:30.304Z,14.20
2017-08-21T03:15:57.732Z,14.10
2017-08-21T03:18:25.279Z,14.10
2017-08-21T03:20:52.700Z,14.00
2017-08-21T03:23:20.185Z,14.00
2017-08-21T03:25:47.605Z,14.00
2017-08-21T03:28:15.163Z,13.90
2017-08-21T03:30:43.388Z,13.90
2017-08-21T03:33:10.843Z,13.90
2017-08-21T03:35:38.301Z,13.90
2017-08-21T03:38:05.729Z,13.90
2017-08-21T03:40:33.213Z,13.90
2017-08-21T03:43:00.678Z,13.80
2017-08-21T03:45:28.113Z,13.90
2017-08-21T03:47:55.586Z,13.80
2017-08-21T03:50:23.023Z,13.80
2017-08-21T03:52:50.505Z,13.80
2017-08-21T03:55:18.064Z,13.70
2017-08-21T03:57:45.515Z,13.70
2017-08-21T04:00:12.912Z,13.70
2017-08-21T04:02:41.121Z,13.60
2017-08-21T04:05:08.562Z,13.60
2017-08-21T04:07:36.001Z,13.60
2017-08-21T04:10:04.184Z,13.60
2017-08-21T04:12:31.631Z,13.60
2017-08-21T04:14:59.080Z,13.60
2017-08-21T04:17:27.277Z,13.60
2017-08-21T04:19:54.710Z,13.60
2017-08-21T04:22:22.943Z,13.60
2017-08-21T04:24:50.391Z,13.60
2017-08-21T04:27:17.880Z,13.60
2017-08-21T04:29:46.085Z,13.50
2017-08-21T04:32:14.337Z,13.60
2017-08-21T04:34:42.589Z,13.50
2017-08-21T04:37:10.017Z,13.50
2017-08-21T04:39:37.460Z,13.60
2017-08-21T04:42:04.885Z,13.60
2017-08-21T04:44:32.393Z,13.60
2017-08-21T04:46:59.849Z,13.60
2017-08-21T04:49:27.305Z,13.60
2017-08-21T04:51:54.768Z,13.60
2017-08-21T04:54:22.185Z,13.60
2017-08-21T04:56:49.669Z,13.60
2017-08-21T04:59:17.092Z,13.60
2017-08-21T05:01:44.515Z,13.60
2017-08-21T05:04:11.945Z,13.60
2017-08-21T05:06:39.384Z,13.60
2017-08-21T05:09:06.901Z,13.60
2017-08-21T05:11:34.320Z,13.60
2017-08-21T05:14:01.789Z,13.60
2017-08-21T05:16:29.226Z,13.70
2017-08-21T05:18:57.441Z,13.70
2017-08-21T05:21:24.880Z,13.70
2017-08-21T05:23:52.332Z,13.70
2017-08-21T05:26:19.769Z,13.70
2017-08-21T05:28:47.197Z,13.70
2017-08-21T05:31:14.620Z,13.80
2017-08-21T05:33:42.069Z,13.80
2017-08-21T05:36:09.499Z,13.80
2017-08-21T05:38:36.920Z,13.80
2017-08-21T05:41:04.460Z,13.90
2017-08-21T05:43:31.896Z,13.90
2017-08-21T05:45:59.339Z,13.90
2017-08-21T05:48:26.808Z,13.90
2017-08-21T05:50:54.265Z,13.90
2017-08-21T05:53:21.677Z,14.00
2017-08-21T05:55:49.949Z,14.00
2017-08-21T05:58:18.163Z,14.10
2017-08-21T06:00:45.586Z,14.10
2017-08-21T06:03:13.780Z,14.20
2017-08-21T06:05:41.261Z,14.20
2017-08-21T06:08:08.688Z,14.20
2017-08-21T06:10:36.176Z,14.30
2017-08-21T06:13:03.629Z,14.30
2017-08-21T06:15:31.053Z,14.40
2017-08-21T06:17:58.544Z,14.40
2017-08-21T06:20:25.998Z,14.40
2017-08-21T06:22:53.470Z,14.50
2017-08-21T06:25:20.908Z,14.50
2017-08-21T06:27:48.386Z,14.50
2017-08-21T06:30:15.828Z,14.60
2017-08-21T06:32:43.283Z,14.60
2017-08-21T06:35:10.744Z,14.70
2017-08-21T06:37:38.196Z,14.70
2017-08-21T06:40:05.643Z,14.80
2017-08-21T06:42:33.131Z,14.80
2017-08-21T06:45:00.555Z,14.80
2017-08-21T06:47:28.027Z,14.90
2017-08-21T06:49:55.480Z,14.90
2017-08-21T06:52:23.029Z,15.00
2017-08-21T06:54:50.437Z,15.00
2017-08-21T06:57:18.633Z,15.10
2017-08-21T06:59:46.073Z,15.10
2017-08-21T07:02:14.407Z,15.20
2017-08-21T07:04:41.824Z,15.20
2017-08-21T07:07:09.379Z,15.30
2017-08-21T07:09:37.565Z,15.30
2017-08-21T07:12:04.990Z,15.30
2017-08-21T07:14:32.504Z,15.30
2017-08-21T07:16:59.960Z,15.40
2017-08-21T07:19:27.395Z,15.40
2017-08-21T07:21:54.877Z,15.40
2017-08-21T07:24:22.301Z,15.50
2017-08-21T07:26:49.739Z,15.60
2017-08-21T07:29:17.998Z,15.80
2017-08-21T07:31:45.448Z,15.80
2017-08-21T07:34:12.893Z,15.90
2017-08-21T07:36:41.460Z,15.90
2017-08-21T07:39:08.912Z,15.80
2017-08-21T07:41:36.369Z,15.90
2017-08-21T07:44:04.236Z,15.90
2017-08-21T07:46:31.639Z,16.00
2017-08-21T07:48:59.058Z,16.10
2017-08-21T07:51:28.015Z,16.20
2017-08-21T07:53:55.480Z,16.20
2017-08-21T07:56:22.899Z,16.30
2017-08-21T07:58:50.363Z,16.40
2017-08-21T08:01:17.767Z,16.40
2017-08-21T08:03:45.961Z,16.60
2017-08-21T08:06:13.387Z,16.50
2017-08-21T08:08:40.809Z,16.60
2017-08-21T08:11:08.307Z,16.70
2017-08-21T08:13:35.706Z,16.80
2017-08-21T08:16:03.240Z,16.90
2017-08-21T08:18:30.752Z,17.00
2017-08-21T08:20:58.248Z,17.00
2017-08-21T08:23:25.674Z,17.10
2017-08-21T08:25:53.092Z,17.10
2017-08-21T08:28:21.367Z,17.30
2017-08-21T08:30:48.779Z,17.30
2017-08-21T08:33:18.080Z,17.30
2017-08-21T08:35:45.541Z,17.40
2017-08-21T08:38:12.964Z,17.50
2017-08-21T08:40:41.175Z,17.70
2017-08-21T08:43:08.749Z,17.70
2017-08-21T08:45:36.323Z,17.70
2017-08-21T08:48:03.756Z,17.80
2017-08-21T08:50:31.172Z,17.80
2017-08-21T08:52:59.370Z,17.80
2017-08-21T08:55:26.793Z,17.80
2017-08-21T08:57:54.229Z,17.90
2017-08-21T09:00:21.711Z,18.10
2017-08-21T09:02:49.148Z,18.20
2017-08-21T09:05:16.577Z,18.30
2017-08-21T09:07:44.036Z,18.20
2017-08-21T09:10:11.532Z,18.20
2017-08-21T09:12:38.965Z,18.30
2017-08-21T09:15:06.378Z,18.30
2017-08-21T09:17:34.600Z,18.30
2017-08-21T09:20:02.028Z,18.30
2017-08-21T09:22:29.494Z,18.30
2017-08-21T09:24:56.925Z,18.30
2017-08-21T09:27:25.152Z,18.40
2017-08-21T09:29:52.579Z,18.40
2017-08-21T09:32:20.016Z,18.50
2017-08-21T09:34:48.228Z,18.60
2017-08-21T09:37:15.640Z,18.60
2017-08-21T09:39:43.094Z,18.50
2017-08-21T09:42:10.540Z,18.70
2017-08-21T09:44:37.981Z,18.80
2017-08-21T09:47:05.386Z,18.70
2017-08-21T09:49:33.584Z,18.50
2017-08-21T09:52:01.756Z,18.60
2017-08-21T09:54:29.186Z,18.60
2017-08-21T09:56:56.696Z,18.70
2017-08-21T09:59:24.152Z,18.90
2017-08-21T10:01:51.569Z,19.10
2017-08-21T10:04:19.008Z,19.20
2017-08-21T10:06:46.420Z,19.20
2017-08-21T10:09:13.852Z,19.20
2017-08-21T10:11:41.268Z,19.10
2017-08-21T10:14:08.716Z,19.00
2017-08-21T10:16:36.192Z,19.00
2017-08-21T10:19:03.643Z,19.30
2017-08-21T10:21:31.195Z,19.40
2017-08-21T10:23:58.630Z,19.50
2017-08-21T10:26:26.053Z,19.60
2017-08-21T10:28:53.480Z,19.80
2017-08-21T10:31:20.902Z,19.70
2017-08-21T10:33:49.014Z,19.50
2017-08-21T10:36:57.093Z,19.50
2017-08-21T10:39:24.506Z,19.40
2017-08-21T10:41:52.016Z,19.40
2017-08-21T10:44:19.471Z,19.40
2017-08-21T10:46:46.892Z,19.50
2017-08-21T10:49:14.324Z,19.60
2017-08-21T10:51:41.849Z,19.60
2017-08-21T10:54:09.271Z,19.60
2017-08-21T10:56:36.692Z,19.70
2017-08-21T10:59:04.113Z,19.80
2017-08-21T11:01:31.565Z,19.90
2017-08-21T11:03:59.056Z,20.00
2017-08-21T11:06:26.487Z,20.00
2017-08-21T11:08:53.988Z,19.90
2017-08-21T11:11:21.421Z,20.00
2017-08-21T11:13:49.376Z,20.20
2017-08-21T11:16:16.784Z,20.40
2017-08-21T11:18:44.316Z,20.70
2017-08-21T11:21:11.776Z,21.00
2017-08-21T11:23:39.232Z,21.10
2017-08-21T11:26:06.657Z,21.00
2017-08-21T11:28:34.170Z,20.90
2017-08-21T11:31:01.569Z,21.10
2017-08-21T11:33:28.994Z,21.30
2017-08-21T11:35:56.517Z,21.20
2017-08-21T11:38:23.957Z,21.10
2017-08-21T11:40:51.413Z,21.10
2017-08-21T11:43:18.861Z,21.10
2017-08-21T11:45:46.273Z,21.30
2017-08-21T11:48:13.781Z,21.40
2017-08-21T11:50:41.214Z,21.40
2017-08-21T11:53:09.419Z,21.40
2017-08-21T11:55:36.841Z,21.40
2017-08-21T11:58:04.255Z,21.60
2017-08-21T12:00:31.799Z,21.80
2017-08-21T12:02:59.212Z,21.90
2017-08-21T12:05:26.716Z,22.50
2017-08-21T12:07:54.124Z,22.80
2017-08-21T12:10:21.535Z,23.20
2017-08-21T12:12:49.059Z,23.50
2017-08-21T12:15:16.472Z,23.40
2017-08-21T12:17:44.081Z,22.90
2017-08-21T12:20:11.536Z,23.40
2017-08-21T12:22:39.015Z,24.30
2017-08-21T12:25:06.442Z,25.00
2017-08-21T12:27:33.900Z,25.50
2017-08-21T12:30:01.441Z,26.10
2017-08-21T12:32:28.848Z,26.60
2017-08-21T12:34:56.299Z,26.80
2017-08-21T12:37:23.712Z,26.40
2017-08-21T12:39:51.896Z,26.90
2017-08-21T12:42:19.321Z,26.90
2017-08-21T12:44:46.742Z,27.60
2017-08-21T12:47:14.212Z,26.90
2017-08-21T12:49:41.673Z,26.00
2017-08-21T12:52:09.118Z,24.90
2017-08-21T12:54:36.567Z,24.10
2017-08-21T12:57:04.026Z,23.20
2017-08-21T12:59:31.637Z,22.60
2017-08-21T13:01:59.068Z,22.10
2017-08-21T13:04:26.480Z,21.80
2017-08-21T13:06:53.911Z,21.80
2017-08-21T13:09:21.410Z,22.60
2017-08-21T13:11:48.824Z,23.70
2017-08-21T13:14:16.309Z,25.00
2017-08-21T13:16:43.757Z,25.60
2017-08-21T13:19:11.203Z,25.40
2017-08-21T13:21:38.782Z,25.70
2017-08-21T13:24:06.234Z,25.70
2017-08-21T13:26:33.696Z,26.60
2017-08-21T13:29:01.164Z,26.40
2017-08-21T13:31:28.593Z,25.50
2017-08-21T13:33:56.063Z,26.20
2017-08-21T13:36:23.493Z,27.60
2017-08-21T13:38:50.946Z,28.30
2017-08-21T13:41:18.437Z,28.10
2017-08-21T13:43:45.893Z,28.40
2017-08-21T13:46:13.390Z,28.90
2017-08-21T13:48:40.828Z,28.90
2017-08-21T13:51:08.241Z,28.00
2017-08-21T13:53:35.764Z,27.60
2017-08-21T13:56:03.193Z,28.40
2017-08-21T13:58:30.633Z,27.90
2017-08-21T14:00:58.085Z,26.90
2017-08-21T14:03:25.561Z,25.40
2017-08-21T14:05:52.985Z,24.30
2017-08-21T14:08:20.460Z,23.40
2017-08-21T14:10:47.893Z,22.80
2017-08-21T14:13:15.342Z,22.10
2017-08-21T14:15:42.818Z,21.70
2017-08-21T14:18:10.251Z,21.40
2017-08-21T14:20:37.742Z,21.20
2017-08-21T14:23:05.169Z,21.10
2017-08-21T14:25:32.654Z,21.00
2017-08-21T14:28:00.093Z,21.00
2017-08-21T14:30:27.552Z,21.00
2017-08-21T14:32:55.016Z,21.00
2017-08-21T14:35:22.432Z,20.90
2017-08-21T14:37:49.854Z,20.90
2017-08-21T14:40:17.276Z,20.90
2017-08-21T14:42:44.735Z,20.90
2017-08-21T14:45:12.153Z,20.90
2017-08-21T14:47:39.680Z,21.00
2017-08-21T14:50:07.100Z,21.20
2017-08-21T14:52:34.524Z,21.60
2017-08-21T14:55:02.036Z,22.10
2017-08-21T14:57:29.470Z,22.50
2017-08-21T14:59:56.884Z,22.50
2017-08-21T15:02:24.316Z,22.30
2017-08-21T15:04:51.749Z,21.90
2017-08-21T15:07:19.261Z,21.50
2017-08-21T15:09:46.688Z,21.10
2017-08-21T15:12:14.157Z,21.10
2017-08-21T15:14:41.637Z,21.30
2017-08-21T15:17:09.108Z,21.30
2017-08-21T15:19:36.633Z,21.20
2017-08-21T15:22:04.052Z,20.90
2017-08-21T15:24:31.649Z,20.60
2017-08-21T15:26:59.097Z,20.40
2017-08-21T15:29:26.513Z,20.00
2017-08-21T15:31:53.957Z,19.80
2017-08-21T15:34:21.369Z,20.00
2017-08-21T15:36:48.816Z,20.10
2017-08-21T15:39:16.262Z,20.10
2017-08-21T15:41:44.480Z,20.10
2017-08-21T15:44:11.921Z,20.10
2017-08-21T15:46:39.373Z,20.00
2017-08-21T15:49:06.845Z,20.00
2017-08-21T15:51:34.338Z,20.00
2017-08-21T15:54:01.793Z,20.10
2017-08-21T15:56:29.227Z,20.20
2017-08-21T15:58:56.644Z,20.30
2017-08-21T16:01:24.847Z,20.60
2017-08-21T16:03:52.278Z,20.50
2017-08-21T16:06:19.700Z,20.50
2017-08-21T16:08:47.134Z,20.60
2017-08-21T16:11:14.544Z,20.60
2017-08-21T16:13:42.048Z,20.70
2017-08-21T16:16:09.457Z,20.80
2017-08-21T16:18:36.881Z,20.90
2017-08-21T16:21:04.302Z,21.00
2017-08-21T16:23:31.720Z,20.90
2017-08-21T16:25:59.145Z,20.80
2017-08-21T16:28:26.565Z,20.80
2017-08-21T16:30:54.050Z,20.80
2017-08-21T16:33:21.461Z,20.40
2017-08-21T16:35:48.886Z,20.20
2017-08-21T16:38:16.411Z,20.10
2017-08-21T16:40:43.832Z,20.10
2017-08-21T16:43:11.253Z,20.30
2017-08-21T16:45:38.788Z,20.40
2017-08-21T16:48:06.263Z,20.30
2017-08-21T16:50:33.664Z,20.50
2017-08-21T16:53:01.104Z,20.50
2017-08-21T16:55:28.535Z,20.30
2017-08-21T16:57:56.070Z,20.30
2017-08-21T17:00:23.642Z,20.20
2017-08-21T17:02:51.061Z,20.20
2017-08-21T17:05:18.642Z,20.40
2017-08-21T17:07:46.114Z,20.20
2017-08-21T17:10:13.540Z,20.20
2017-08-21T17:12:41.024Z,20.20
2017-08-21T17:15:08.471Z,20.00
2017-08-21T17:17:35.977Z,20.00
2017-08-21T17:20:03.392Z,20.10
2017-08-21T17:22:30.849Z,20.00
2017-08-21T17:24:58.321Z,20.00
2017-08-21T17:27:25.757Z,20.00
2017-08-21T17:29:53.238Z,20.00
2017-08-21T17:32:20.796Z,20.00
2017-08-21T17:34:48.248Z,20.00
2017-08-21T17:37:15.717Z,20.00
2017-08-21T17:39:43.178Z,19.90
2017-08-21T17:42:10.613Z,19.70
2017-08-21T17:44:38.071Z,19.70
2017-08-21T17:47:05.569Z,19.50
2017-08-21T17:49:33.000Z,19.40
2017-08-21T17:52:00.442Z,19.40
2017-08-21T17:54:27.992Z,19.50
2017-08-21T17:56:55.445Z,19.40
2017-08-21T17:59:22.850Z,19.30
2017-08-21T18:01:50.277Z,19.20
2017-08-21T18:04:17.733Z,19.20
2017-08-21T18:06:45.325Z,19.20
2017-08-21T18:09:12.808Z,19.20
2017-08-21T18:11:40.229Z,19.10
2017-08-21T18:14:07.661Z,19.10
2017-08-21T18:16:35.094Z,19.10
2017-08-21T18:19:02.560Z,19.00
2017-08-21T18:21:30.020Z,19.10
2017-08-21T18:23:57.448Z,19.10
2017-08-21T18:26:24.874Z,19.10
2017-08-21T18:28:52.365Z,19.10
2017-08-21T18:31:19.787Z,19.10
2017-08-21T18:33:47.305Z,19.10
2017-08-21T18:36:14.824Z,18.80
2017-08-21T18:38:42.330Z,18.70
2017-08-21T18:41:09.766Z,18.70
2017-08-21T18:43:37.190Z,18.80
2017-08-21T18:46:04.622Z,18.80
2017-08-21T18:48:32.053Z,18.80
2017-08-21T18:51:00.460Z,18.80
2017-08-21T18:53:27.981Z,18.80
2017-08-21T18:55:55.401Z,18.80
2017-08-21T18:58:22.888Z,18.80
2017-08-21T19:00:50.319Z,18.70
2017-08-21T19:03:17.798Z,18.60
2017-08-21T19:05:45.221Z,18.50
2017-08-21T19:08:12.658Z,18.40
2017-08-21T19:10:40.097Z,18.40
2017-08-21T19:13:07.626Z,18.40
2017-08-21T19:15:35.080Z,18.40
2017-08-21T19:18:02.556Z,18.30
2017-08-21T19:20:30.115Z,18.30
2017-08-21T19:22:57.664Z,18.30
2017-08-21T19:25:25.129Z,18.30
2017-08-21T19:27:52.576Z,18.20
2017-08-21T19:30:20.009Z,18.20
2017-08-21T19:32:47.428Z,18.20
2017-08-21T19:35:14.940Z,18.20
2017-08-21T19:37:42.364Z,18.10
2017-08-21T19:40:09.798Z,18.10
2017-08-21T19:42:37.213Z,18.10
2017-08-21T19:45:04.665Z,18.20
2017-08-21T19:47:32.093Z,18.20
2017-08-21T19:49:59.505Z,18.10
2017-08-21T19:52:26.936Z,18.10
2017-08-21T19:54:54.364Z,18.10
2017-08-21T19:57:21.869Z,18.00
2017-08-21T19:59:49.305Z,18.00
2017-08-21T20:02:16.740Z,17.90
2017-08-21T20:04:44.181Z,17.90
2017-08-21T20:07:11.617Z,17.90
2017-08-21T20:09:39.052Z,17.90
2017-08-21T20:12:06.497Z,17.80
2017-08-21T20:14:34.683Z,17.70
2017-08-21T20:17:02.133Z,17.60
2017-08-21T20:19:29.565Z,17.70
2017-08-21T20:21:56.980Z,17.60
2017-08-21T20:24:24.532Z,17.60
2017-08-21T20:26:51.990Z,17.60
2017-08-21T20:29:19.448Z,17.50
2017-08-21T20:31:46.905Z,17.50
2017-08-21T20:34:14.349Z,17.50
2017-08-21T20:36:41.771Z,17.50
2017-08-21T20:39:09.201Z,17.40
2017-08-21T20:41:36.627Z,17.30
2017-08-21T20:44:04.109Z,17.30
2017-08-21T20:46:31.542Z,17.20
2017-08-21T20:48:58.968Z,17.20
2017-08-21T20:51:26.476Z,17.20
2017-08-21T20:53:53.932Z,17.20
2017-08-21T20:56:21.364Z,17.10
2017-08-21T20:58:48.802Z,17.10
2017-08-21T21:01:16.205Z,17.10
2017-08-21T21:03:43.661Z,17.20
2017-08-21T21:06:11.116Z,17.20
2017-08-21T21:08:38.549Z,17.20
2017-08-21T21:11:06.021Z,17.20
2017-08-21T21:13:33.481Z,17.20
2017-08-21T21:16:00.896Z,17.20
2017-08-21T21:18:28.333Z,17.30
2017-08-21T21:20:55.781Z,17.20
2017-08-21T21:23:23.200Z,17.20
2017-08-21T21:25:50.621Z,17.20
2017-08-21T21:28:18.060Z,17.10
2017-08-21T21:30:45.493Z,17.20
2017-08-21T21:33:12.933Z,17.10
2017-08-21T21:35:40.379Z,17.10
2017-08-21T21:38:07.798Z,17.10
2017-08-21T21:40:35.236Z,17.10
2017-08-21T21:43:02.842Z,17.10
2017-08-21T21:45:30.325Z,17.10
2017-08-21T21:47:57.766Z,17.00
2017-08-21T21:50:25.169Z,16.90
2017-08-21T21:52:52.805Z,16.90
2017-08-21T21:55:20.238Z,16.90
2017-08-21T21:57:47.741Z,16.90
2017-08-21T22:00:15.165Z,16.80
2017-08-21T22:02:42.598Z,16.70
2017-08-21T22:05:10.013Z,16.70
2017-08-21T22:07:37.436Z,16.60
2017-08-21T22:10:04.865Z,16.60
2017-08-21T22:12:32.305Z,16.50
2017-08-21T22:14:59.818Z,16.30
2017-08-21T22:17:27.266Z,16.20
2017-08-21T22:19:54.747Z,16.20
2017-08-21T22:22:22.175Z,16.10
2017-08-21T22:24:49.706Z,16.10
2017-08-21T22:27:17.119Z,16.10
2017-08-21T22:29:44.547Z,16.00
2017-08-21T22:32:11.964Z,16.00
2017-08-21T22:34:39.420Z,16.00
2017-08-21T22:37:06.849Z,15.90
2017-08-21T22:39:34.308Z,15.90
2017-08-21T22:42:01.877Z,15.90
2017-08-21T22:44:29.336Z,15.90
2017-08-21T22:46:56.771Z,15.90
2017-08-21T22:49:24.244Z,15.90
2017-08-21T22:51:51.665Z,15.90
2017-08-21T22:54:19.105Z,15.90
2017-08-21T22:56:46.521Z,15.80
2017-08-21T22:59:13.974Z,15.80
2017-08-21T23:01:58.869Z,15.80
2017-08-21T23:04:26.277Z,15.80
2017-08-21T23:06:53.704Z,15.80
2017-08-21T23:09:21.193Z,15.70
2017-08-21T23:11:48.617Z,15.70
2017-08-21T23:14:16.063Z,15.60
2017-08-21T23:16:43.489Z,15.60
2017-08-21T23:19:11.021Z,15.60
2017-08-21T23:21:38.449Z,15.60
2017-08-21T23:24:05.932Z,15.50
2017-08-21T23:26:33.360Z,15.50
2017-08-21T23:29:00.852Z,15.40
2017-08-21T23:31:28.298Z,15.40
2017-08-21T23:33:55.772Z,15.40
2017-08-21T23:36:23.216Z,15.30
2017-08-21T23:38:50.733Z,15.30
2017-08-21T23:41:18.227Z,15.30
2017-08-21T23:43:45.653Z,15.30
2017-08-21T23:46:13.077Z,15.30
2017-08-21T23:48:40.600Z,15.30
2017-08-21T23:51:08.056Z,15.30
2017-08-21T23:53:35.480Z,15.20
2017-08-21T23:56:02.916Z,15.20
2017-08-21T23:58:30.341Z,15.20
